sensor_id;sensor_type;location;lat;lon;timestamp;P1;durP1;ratioP1;P2;durP2;ratioP2
25191;SDS011;13143;50.924;5.320;2022-08-19T00:00:25;33.25;;;25.88;;
25191;SDS011;13143;50.924;5.320;2022-08-19T00:02:52;28.55;;;24.95;;
25191;SDS011;13143;50.924;5.320;2022-08-19T00:05:18;31.63;;;25.90;;
25191;SDS011;13143;50.924;5.320;2022-08-19T00:07:44;28.05;;;25.23;;
25191;SDS011;13143;50.924;5.320;2022-08-19T00:10:11;31.35;;;25.17;;
25191;SDS011;13143;50.924;5.320;2022-08-19T00:12:38;28.67;;;24.92;;
25191;SDS011;13143;50.924;5.320;2022-08-19T00:15:05;28.70;;;25.80;;
25191;SDS011;13143;50.924;5.320;2022-08-19T00:17:36;28.10;;;25.13;;
25191;SDS011;13143;50.924;5.320;2022-08-19T00:20:03;28.70;;;25.67;;
25191;SDS011;13143;50.924;5.320;2022-08-19T00:22:29;27.55;;;24.63;;
25191;SDS011;13143;50.924;5.320;2022-08-19T00:24:56;31.67;;;25.63;;
25191;SDS011;13143;50.924;5.320;2022-08-19T00:27:22;28.33;;;25.25;;
25191;SDS011;13143;50.924;5.320;2022-08-19T00:29:47;35.47;;;25.65;;
25191;SDS011;13143;50.924;5.320;2022-08-19T00:32:13;27.52;;;24.67;;
25191;SDS011;13143;50.924;5.320;2022-08-19T00:34:39;31.80;;;26.20;;
25191;SDS011;13143;50.924;5.320;2022-08-19T00:37:04;29.08;;;25.70;;
25191;SDS011;13143;50.924;5.320;2022-08-19T00:39:30;28.80;;;24.77;;
25191;SDS011;13143;50.924;5.320;2022-08-19T00:41:56;28.35;;;25.42;;
25191;SDS011;13143;50.924;5.320;2022-08-19T00:44:24;28.77;;;25.65;;
25191;SDS011;13143;50.924;5.320;2022-08-19T00:46:52;30.88;;;25.75;;
25191;SDS011;13143;50.924;5.320;2022-08-19T00:49:25;29.42;;;24.58;;
25191;SDS011;13143;50.924;5.320;2022-08-19T00:52:06;28.60;;;25.63;;
25191;SDS011;13143;50.924;5.320;2022-08-19T00:54:35;32.75;;;25.70;;
25191;SDS011;13143;50.924;5.320;2022-08-19T00:57:02;32.20;;;26.08;;
25191;SDS011;13143;50.924;5.320;2022-08-19T00:59:33;29.33;;;26.25;;
25191;SDS011;13143;50.924;5.320;2022-08-19T01:02:02;30.38;;;26.40;;
25191;SDS011;13143;50.924;5.320;2022-08-19T01:04:28;30.58;;;26.60;;
25191;SDS011;13143;50.924;5.320;2022-08-19T01:06:54;31.38;;;27.13;;
25191;SDS011;13143;50.924;5.320;2022-08-19T01:09:21;35.10;;;26.42;;
25191;SDS011;13143;50.924;5.320;2022-08-19T01:11:47;30.80;;;26.85;;
25191;SDS011;13143;50.924;5.320;2022-08-19T01:14:12;35.13;;;27.75;;
25191;SDS011;13143;50.924;5.320;2022-08-19T01:16:40;30.55;;;27.30;;
25191;SDS011;13143;50.924;5.320;2022-08-19T01:19:09;32.17;;;26.23;;
25191;SDS011;13143;50.924;5.320;2022-08-19T01:21:51;32.03;;;26.33;;
25191;SDS011;13143;50.924;5.320;2022-08-19T01:24:25;32.47;;;28.33;;
25191;SDS011;13143;50.924;5.320;2022-08-19T01:26:51;31.88;;;26.73;;
25191;SDS011;13143;50.924;5.320;2022-08-19T01:29:16;31.08;;;25.45;;
25191;SDS011;13143;50.924;5.320;2022-08-19T01:31:42;32.75;;;26.85;;
25191;SDS011;13143;50.924;5.320;2022-08-19T01:34:08;31.25;;;27.92;;
25191;SDS011;13143;50.924;5.320;2022-08-19T01:36:36;35.70;;;26.73;;
25191;SDS011;13143;50.924;5.320;2022-08-19T01:39:09;30.33;;;26.95;;
25191;SDS011;13143;50.924;5.320;2022-08-19T01:41:40;30.05;;;26.15;;
25191;SDS011;13143;50.924;5.320;2022-08-19T01:44:06;31.85;;;28.02;;
25191;SDS011;13143;50.924;5.320;2022-08-19T01:46:33;31.85;;;26.30;;
25191;SDS011;13143;50.924;5.320;2022-08-19T01:48:59;32.17;;;27.98;;
25191;SDS011;13143;50.924;5.320;2022-08-19T01:51:25;33.25;;;28.08;;
25191;SDS011;13143;50.924;5.320;2022-08-19T01:53:52;41.38;;;29.02;;
25191;SDS011;13143;50.924;5.320;2022-08-19T01:56:18;34.15;;;28.95;;
25191;SDS011;13143;50.924;5.320;2022-08-19T01:58:49;37.53;;;30.20;;
25191;SDS011;13143;50.924;5.320;2022-08-19T02:01:19;37.03;;;30.75;;
25191;SDS011;13143;50.924;5.320;2022-08-19T02:03:45;36.05;;;30.60;;
25191;SDS011;13143;50.924;5.320;2022-08-19T02:06:11;34.78;;;29.55;;
25191;SDS011;13143;50.924;5.320;2022-08-19T02:08:37;37.63;;;30.60;;
25191;SDS011;13143;50.924;5.320;2022-08-19T02:11:03;35.42;;;29.92;;
25191;SDS011;13143;50.924;5.320;2022-08-19T02:13:30;38.47;;;31.08;;
25191;SDS011;13143;50.924;5.320;2022-08-19T02:15:56;41.53;;;32.20;;
25191;SDS011;13143;50.924;5.320;2022-08-19T02:18:22;42.08;;;31.83;;
25191;SDS011;13143;50.924;5.320;2022-08-19T02:20:48;40.67;;;32.33;;
25191;SDS011;13143;50.924;5.320;2022-08-19T02:23:15;38.33;;;30.83;;
25191;SDS011;13143;50.924;5.320;2022-08-19T02:25:43;38.15;;;32.47;;
25191;SDS011;13143;50.924;5.320;2022-08-19T02:28:10;40.90;;;32.15;;
25191;SDS011;13143;50.924;5.320;2022-08-19T02:30:36;43.17;;;31.40;;
25191;SDS011;13143;50.924;5.320;2022-08-19T02:33:03;40.22;;;33.22;;
25191;SDS011;13143;50.924;5.320;2022-08-19T02:35:30;40.97;;;34.53;;
25191;SDS011;13143;50.924;5.320;2022-08-19T02:37:55;41.03;;;33.63;;
25191;SDS011;13143;50.924;5.320;2022-08-19T02:40:40;42.78;;;33.78;;
25191;SDS011;13143;50.924;5.320;2022-08-19T02:43:14;43.47;;;35.03;;
25191;SDS011;13143;50.924;5.320;2022-08-19T02:45:40;46.95;;;36.60;;
25191;SDS011;13143;50.924;5.320;2022-08-19T02:48:06;42.47;;;35.55;;
25191;SDS011;13143;50.924;5.320;2022-08-19T02:50:36;46.47;;;37.42;;
25191;SDS011;13143;50.924;5.320;2022-08-19T02:53:05;48.25;;;38.03;;
25191;SDS011;13143;50.924;5.320;2022-08-19T02:55:33;51.50;;;39.03;;
25191;SDS011;13143;50.924;5.320;2022-08-19T02:57:59;51.25;;;39.53;;
25191;SDS011;13143;50.924;5.320;2022-08-19T03:00:25;49.20;;;38.72;;
25191;SDS011;13143;50.924;5.320;2022-08-19T03:02:51;52.50;;;40.33;;
25191;SDS011;13143;50.924;5.320;2022-08-19T03:05:17;51.17;;;39.95;;
25191;SDS011;13143;50.924;5.320;2022-08-19T03:07:43;51.67;;;40.72;;
25191;SDS011;13143;50.924;5.320;2022-08-19T03:10:09;55.83;;;39.90;;
25191;SDS011;13143;50.924;5.320;2022-08-19T03:12:36;53.60;;;42.58;;
25191;SDS011;13143;50.924;5.320;2022-08-19T03:15:03;56.58;;;41.05;;
25191;SDS011;13143;50.924;5.320;2022-08-19T03:17:31;57.65;;;42.17;;
25191;SDS011;13143;50.924;5.320;2022-08-19T03:19:56;56.50;;;41.70;;
25191;SDS011;13143;50.924;5.320;2022-08-19T03:22:22;59.45;;;43.38;;
25191;SDS011;13143;50.924;5.320;2022-08-19T03:24:48;56.63;;;42.30;;
25191;SDS011;13143;50.924;5.320;2022-08-19T03:27:13;60.10;;;42.78;;
25191;SDS011;13143;50.924;5.320;2022-08-19T03:29:39;63.30;;;45.58;;
25191;SDS011;13143;50.924;5.320;2022-08-19T03:32:05;63.42;;;44.58;;
25191;SDS011;13143;50.924;5.320;2022-08-19T03:34:31;61.13;;;44.75;;
25191;SDS011;13143;50.924;5.320;2022-08-19T03:37:02;63.08;;;45.20;;
25191;SDS011;13143;50.924;5.320;2022-08-19T03:41:58;59.83;;;43.95;;
25191;SDS011;13143;50.924;5.320;2022-08-19T03:44:27;67.78;;;46.22;;
25191;SDS011;13143;50.924;5.320;2022-08-19T03:46:55;67.60;;;46.20;;
25191;SDS011;13143;50.924;5.320;2022-08-19T03:49:24;64.55;;;46.13;;
25191;SDS011;13143;50.924;5.320;2022-08-19T03:51:52;69.22;;;47.10;;
25191;SDS011;13143;50.924;5.320;2022-08-19T03:54:20;64.10;;;47.03;;
25191;SDS011;13143;50.924;5.320;2022-08-19T03:56:50;66.15;;;45.83;;
25191;SDS011;13143;50.924;5.320;2022-08-19T03:59:25;70.15;;;48.17;;
25191;SDS011;13143;50.924;5.320;2022-08-19T04:01:57;69.57;;;48.33;;
25191;SDS011;13143;50.924;5.320;2022-08-19T04:04:24;67.20;;;48.78;;
25191;SDS011;13143;50.924;5.320;2022-08-19T04:06:50;69.13;;;47.78;;
25191;SDS011;13143;50.924;5.320;2022-08-19T04:09:16;68.45;;;48.58;;
25191;SDS011;13143;50.924;5.320;2022-08-19T04:11:44;68.32;;;48.55;;
25191;SDS011;13143;50.924;5.320;2022-08-19T04:14:16;69.25;;;48.35;;
25191;SDS011;13143;50.924;5.320;2022-08-19T04:16:43;71.97;;;49.47;;
25191;SDS011;13143;50.924;5.320;2022-08-19T04:19:11;74.38;;;50.58;;
25191;SDS011;13143;50.924;5.320;2022-08-19T04:21:38;69.30;;;48.47;;
25191;SDS011;13143;50.924;5.320;2022-08-19T04:24:04;73.70;;;48.33;;
25191;SDS011;13143;50.924;5.320;2022-08-19T04:26:32;73.65;;;50.10;;
25191;SDS011;13143;50.924;5.320;2022-08-19T04:29:00;75.03;;;48.50;;
25191;SDS011;13143;50.924;5.320;2022-08-19T04:31:28;75.05;;;48.95;;
25191;SDS011;13143;50.924;5.320;2022-08-19T04:33:56;71.85;;;48.42;;
25191;SDS011;13143;50.924;5.320;2022-08-19T04:36:29;69.55;;;47.42;;
25191;SDS011;13143;50.924;5.320;2022-08-19T04:38:56;68.03;;;47.40;;
25191;SDS011;13143;50.924;5.320;2022-08-19T04:41:23;67.25;;;46.80;;
25191;SDS011;13143;50.924;5.320;2022-08-19T04:44:08;69.43;;;48.55;;
25191;SDS011;13143;50.924;5.320;2022-08-19T04:46:35;69.65;;;46.67;;
25191;SDS011;13143;50.924;5.320;2022-08-19T04:49:02;69.72;;;47.50;;
25191;SDS011;13143;50.924;5.320;2022-08-19T04:51:30;72.45;;;49.35;;
25191;SDS011;13143;50.924;5.320;2022-08-19T04:53:57;77.72;;;48.78;;
25191;SDS011;13143;50.924;5.320;2022-08-19T04:56:24;73.63;;;48.58;;
25191;SDS011;13143;50.924;5.320;2022-08-19T04:58:52;71.13;;;48.97;;
25191;SDS011;13143;50.924;5.320;2022-08-19T05:01:20;80.25;;;52.08;;
25191;SDS011;13143;50.924;5.320;2022-08-19T05:03:51;74.10;;;50.50;;
25191;SDS011;13143;50.924;5.320;2022-08-19T05:06:18;71.47;;;48.53;;
25191;SDS011;13143;50.924;5.320;2022-08-19T05:08:45;75.25;;;49.53;;
25191;SDS011;13143;50.924;5.320;2022-08-19T05:11:19;79.95;;;52.88;;
25191;SDS011;13143;50.924;5.320;2022-08-19T05:13:47;73.93;;;52.35;;
25191;SDS011;13143;50.924;5.320;2022-08-19T05:16:14;76.40;;;51.50;;
25191;SDS011;13143;50.924;5.320;2022-08-19T05:18:42;77.50;;;50.85;;
25191;SDS011;13143;50.924;5.320;2022-08-19T05:21:27;76.40;;;53.08;;
25191;SDS011;13143;50.924;5.320;2022-08-19T05:24:13;82.68;;;53.33;;
25191;SDS011;13143;50.924;5.320;2022-08-19T05:26:41;77.43;;;51.92;;
25191;SDS011;13143;50.924;5.320;2022-08-19T05:29:10;81.13;;;53.45;;
25191;SDS011;13143;50.924;5.320;2022-08-19T05:31:36;78.18;;;52.22;;
25191;SDS011;13143;50.924;5.320;2022-08-19T05:34:03;86.35;;;54.20;;
25191;SDS011;13143;50.924;5.320;2022-08-19T05:36:33;84.40;;;52.67;;
25191;SDS011;13143;50.924;5.320;2022-08-19T05:39:02;81.65;;;53.08;;
25191;SDS011;13143;50.924;5.320;2022-08-19T05:41:28;79.55;;;51.35;;
25191;SDS011;13143;50.924;5.320;2022-08-19T05:44:00;75.93;;;52.20;;
25191;SDS011;13143;50.924;5.320;2022-08-19T05:46:30;74.22;;;49.80;;
25191;SDS011;13143;50.924;5.320;2022-08-19T05:48:56;72.57;;;49.13;;
25191;SDS011;13143;50.924;5.320;2022-08-19T05:51:22;70.20;;;49.30;;
25191;SDS011;13143;50.924;5.320;2022-08-19T05:53:50;69.43;;;47.67;;
25191;SDS011;13143;50.924;5.320;2022-08-19T05:56:16;66.63;;;47.03;;
25191;SDS011;13143;50.924;5.320;2022-08-19T05:58:44;66.68;;;46.50;;
25191;SDS011;13143;50.924;5.320;2022-08-19T06:01:14;67.25;;;46.05;;
25191;SDS011;13143;50.924;5.320;2022-08-19T06:03:41;64.32;;;46.13;;
25191;SDS011;13143;50.924;5.320;2022-08-19T06:06:09;59.15;;;43.50;;
25191;SDS011;13143;50.924;5.320;2022-08-19T06:08:36;64.22;;;44.83;;
25191;SDS011;13143;50.924;5.320;2022-08-19T06:12:03;64.43;;;43.90;;
25191;SDS011;13143;50.924;5.320;2022-08-19T06:14:03;66.00;;;42.97;;
25191;SDS011;13143;50.924;5.320;2022-08-19T06:16:33;63.67;;;43.95;;
25191;SDS011;13143;50.924;5.320;2022-08-19T06:19:01;57.20;;;43.03;;
25191;SDS011;13143;50.924;5.320;2022-08-19T06:21:31;56.00;;;40.35;;
25191;SDS011;13143;50.924;5.320;2022-08-19T06:23:57;58.15;;;40.88;;
25191;SDS011;13143;50.924;5.320;2022-08-19T06:26:23;57.35;;;40.55;;
25191;SDS011;13143;50.924;5.320;2022-08-19T06:28:50;55.88;;;39.75;;
25191;SDS011;13143;50.924;5.320;2022-08-19T06:31:16;53.33;;;37.95;;
25191;SDS011;13143;50.924;5.320;2022-08-19T06:33:50;54.40;;;37.30;;
25191;SDS011;13143;50.924;5.320;2022-08-19T06:36:26;48.55;;;36.58;;
25191;SDS011;13143;50.924;5.320;2022-08-19T06:38:59;56.78;;;37.97;;
25191;SDS011;13143;50.924;5.320;2022-08-19T06:41:27;53.63;;;36.85;;
25191;SDS011;13143;50.924;5.320;2022-08-19T06:43:53;55.78;;;35.38;;
25191;SDS011;13143;50.924;5.320;2022-08-19T06:46:20;48.75;;;35.33;;
25191;SDS011;13143;50.924;5.320;2022-08-19T06:48:46;53.45;;;35.72;;
25191;SDS011;13143;50.924;5.320;2022-08-19T06:51:13;56.25;;;35.25;;
25191;SDS011;13143;50.924;5.320;2022-08-19T06:53:43;49.70;;;33.47;;
25191;SDS011;13143;50.924;5.320;2022-08-19T06:56:12;50.20;;;32.30;;
25191;SDS011;13143;50.924;5.320;2022-08-19T06:58:39;46.65;;;31.65;;
25191;SDS011;13143;50.924;5.320;2022-08-19T07:01:05;46.45;;;31.73;;
25191;SDS011;13143;50.924;5.320;2022-08-19T07:03:31;46.92;;;30.77;;
25191;SDS011;13143;50.924;5.320;2022-08-19T07:06:02;45.53;;;30.42;;
25191;SDS011;13143;50.924;5.320;2022-08-19T07:08:29;47.08;;;31.02;;
25191;SDS011;13143;50.924;5.320;2022-08-19T07:10:55;43.75;;;28.88;;
25191;SDS011;13143;50.924;5.320;2022-08-19T07:13:21;44.25;;;27.98;;
25191;SDS011;13143;50.924;5.320;2022-08-19T07:15:47;44.47;;;27.30;;
25191;SDS011;13143;50.924;5.320;2022-08-19T07:18:14;40.53;;;27.10;;
25191;SDS011;13143;50.924;5.320;2022-08-19T07:20:40;47.35;;;27.23;;
25191;SDS011;13143;50.924;5.320;2022-08-19T07:23:06;42.13;;;25.67;;
25191;SDS011;13143;50.924;5.320;2022-08-19T07:25:32;41.50;;;26.40;;
25191;SDS011;13143;50.924;5.320;2022-08-19T07:27:58;42.47;;;26.40;;
25191;SDS011;13143;50.924;5.320;2022-08-19T07:30:23;37.28;;;25.00;;
25191;SDS011;13143;50.924;5.320;2022-08-19T07:32:49;38.30;;;23.50;;
25191;SDS011;13143;50.924;5.320;2022-08-19T07:35:17;35.38;;;23.25;;
25191;SDS011;13143;50.924;5.320;2022-08-19T07:37:44;42.47;;;23.80;;
25191;SDS011;13143;50.924;5.320;2022-08-19T07:40:11;37.72;;;24.95;;
25191;SDS011;13143;50.924;5.320;2022-08-19T07:42:37;44.33;;;23.88;;
25191;SDS011;13143;50.924;5.320;2022-08-19T07:45:03;39.67;;;24.67;;
25191;SDS011;13143;50.924;5.320;2022-08-19T07:47:30;38.97;;;23.92;;
25191;SDS011;13143;50.924;5.320;2022-08-19T07:49:56;39.10;;;25.10;;
25191;SDS011;13143;50.924;5.320;2022-08-19T07:52:21;46.58;;;27.77;;
25191;SDS011;13143;50.924;5.320;2022-08-19T07:54:47;50.22;;;27.42;;
25191;SDS011;13143;50.924;5.320;2022-08-19T07:57:14;46.03;;;26.50;;
25191;SDS011;13143;50.924;5.320;2022-08-19T07:59:40;42.05;;;26.75;;
25191;SDS011;13143;50.924;5.320;2022-08-19T08:02:06;47.15;;;25.13;;
25191;SDS011;13143;50.924;5.320;2022-08-19T08:04:33;40.25;;;24.95;;
25191;SDS011;13143;50.924;5.320;2022-08-19T08:07:18;37.58;;;25.13;;
25191;SDS011;13143;50.924;5.320;2022-08-19T08:10:03;40.97;;;24.50;;
25191;SDS011;13143;50.924;5.320;2022-08-19T08:12:32;34.72;;;23.73;;
25191;SDS011;13143;50.924;5.320;2022-08-19T08:15:01;34.30;;;22.45;;
25191;SDS011;13143;50.924;5.320;2022-08-19T08:17:32;38.95;;;24.02;;
25191;SDS011;13143;50.924;5.320;2022-08-19T08:19:58;34.67;;;22.42;;
25191;SDS011;13143;50.924;5.320;2022-08-19T08:22:24;40.92;;;22.65;;
25191;SDS011;13143;50.924;5.320;2022-08-19T08:25:14;35.42;;;21.42;;
25191;SDS011;13143;50.924;5.320;2022-08-19T08:27:44;32.22;;;20.73;;
25191;SDS011;13143;50.924;5.320;2022-08-19T08:30:15;31.83;;;20.73;;
25191;SDS011;13143;50.924;5.320;2022-08-19T08:32:47;31.15;;;20.27;;
25191;SDS011;13143;50.924;5.320;2022-08-19T08:35:14;36.35;;;20.17;;
25191;SDS011;13143;50.924;5.320;2022-08-19T08:37:41;32.42;;;20.55;;
25191;SDS011;13143;50.924;5.320;2022-08-19T08:40:30;33.05;;;20.17;;
25191;SDS011;13143;50.924;5.320;2022-08-19T08:45:35;25.70;;;17.92;;
25191;SDS011;13143;50.924;5.320;2022-08-19T08:48:10;27.85;;;17.10;;
25191;SDS011;13143;50.924;5.320;2022-08-19T08:50:45;29.77;;;18.10;;
25191;SDS011;13143;50.924;5.320;2022-08-19T08:53:16;27.70;;;16.75;;
25191;SDS011;13143;50.924;5.320;2022-08-19T08:55:42;26.55;;;17.45;;
25191;SDS011;13143;50.924;5.320;2022-08-19T08:58:12;25.10;;;17.17;;
25191;SDS011;13143;50.924;5.320;2022-08-19T09:00:45;20.52;;;15.27;;
25191;SDS011;13143;50.924;5.320;2022-08-19T09:05:50;25.58;;;16.73;;
25191;SDS011;13143;50.924;5.320;2022-08-19T09:10:51;25.60;;;16.48;;
25191;SDS011;13143;50.924;5.320;2022-08-19T09:15:58;20.50;;;13.43;;
25191;SDS011;13143;50.924;5.320;2022-08-19T09:21:18;22.48;;;14.52;;
25191;SDS011;13143;50.924;5.320;2022-08-19T09:23:45;22.70;;;14.60;;
25191;SDS011;13143;50.924;5.320;2022-08-19T09:26:12;20.77;;;14.63;;
25191;SDS011;13143;50.924;5.320;2022-08-19T09:28:40;23.33;;;15.40;;
25191;SDS011;13143;50.924;5.320;2022-08-19T09:31:09;23.60;;;14.52;;
25191;SDS011;13143;50.924;5.320;2022-08-19T09:33:38;19.67;;;13.43;;
25191;SDS011;13143;50.924;5.320;2022-08-19T09:36:06;21.80;;;12.35;;
25191;SDS011;13143;50.924;5.320;2022-08-19T09:38:34;19.88;;;11.60;;
25191;SDS011;13143;50.924;5.320;2022-08-19T09:41:04;23.02;;;13.68;;
25191;SDS011;13143;50.924;5.320;2022-08-19T09:43:31;19.10;;;12.15;;
25191;SDS011;13143;50.924;5.320;2022-08-19T09:46:03;21.55;;;12.02;;
25191;SDS011;13143;50.924;5.320;2022-08-19T09:48:31;21.17;;;12.50;;
25191;SDS011;13143;50.924;5.320;2022-08-19T09:51:04;25.20;;;11.77;;
25191;SDS011;13143;50.924;5.320;2022-08-19T09:53:33;14.02;;;9.73;;
25191;SDS011;13143;50.924;5.320;2022-08-19T09:55:59;15.77;;;10.52;;
25191;SDS011;13143;50.924;5.320;2022-08-19T09:58:24;17.48;;;9.30;;
25191;SDS011;13143;50.924;5.320;2022-08-19T10:00:53;14.38;;;7.35;;
25191;SDS011;13143;50.924;5.320;2022-08-19T10:03:19;14.05;;;7.72;;
25191;SDS011;13143;50.924;5.320;2022-08-19T10:05:45;12.25;;;6.88;;
25191;SDS011;13143;50.924;5.320;2022-08-19T10:08:14;10.35;;;5.95;;
25191;SDS011;13143;50.924;5.320;2022-08-19T10:10:47;14.25;;;6.10;;
25191;SDS011;13143;50.924;5.320;2022-08-19T10:13:14;10.30;;;6.72;;
25191;SDS011;13143;50.924;5.320;2022-08-19T10:15:42;14.15;;;7.80;;
25191;SDS011;13143;50.924;5.320;2022-08-19T10:18:08;12.13;;;6.20;;
25191;SDS011;13143;50.924;5.320;2022-08-19T10:20:35;14.93;;;6.88;;
25191;SDS011;13143;50.924;5.320;2022-08-19T10:23:03;12.75;;;6.63;;
25191;SDS011;13143;50.924;5.320;2022-08-19T10:25:29;13.90;;;6.30;;
25191;SDS011;13143;50.924;5.320;2022-08-19T10:27:56;10.75;;;6.97;;
25191;SDS011;13143;50.924;5.320;2022-08-19T10:30:22;9.80;;;7.05;;
25191;SDS011;13143;50.924;5.320;2022-08-19T10:32:48;11.98;;;6.28;;
25191;SDS011;13143;50.924;5.320;2022-08-19T10:35:13;10.15;;;6.90;;
25191;SDS011;13143;50.924;5.320;2022-08-19T10:37:39;15.27;;;7.20;;
25191;SDS011;13143;50.924;5.320;2022-08-19T10:40:06;9.68;;;6.95;;
25191;SDS011;13143;50.924;5.320;2022-08-19T10:42:33;11.77;;;6.13;;
25191;SDS011;13143;50.924;5.320;2022-08-19T10:44:59;10.32;;;6.60;;
25191;SDS011;13143;50.924;5.320;2022-08-19T10:47:25;9.70;;;7.05;;
25191;SDS011;13143;50.924;5.320;2022-08-19T10:49:51;12.50;;;6.47;;
25191;SDS011;13143;50.924;5.320;2022-08-19T10:52:37;9.85;;;5.68;;
25191;SDS011;13143;50.924;5.320;2022-08-19T10:55:04;12.55;;;6.25;;
25191;SDS011;13143;50.924;5.320;2022-08-19T10:57:49;10.90;;;5.65;;
25191;SDS011;13143;50.924;5.320;2022-08-19T11:00:15;11.65;;;5.28;;
25191;SDS011;13143;50.924;5.320;2022-08-19T11:02:41;10.05;;;6.35;;
25191;SDS011;13143;50.924;5.320;2022-08-19T11:05:07;10.93;;;5.35;;
25191;SDS011;13143;50.924;5.320;2022-08-19T11:07:36;7.38;;;5.32;;
25191;SDS011;13143;50.924;5.320;2022-08-19T11:10:05;8.88;;;5.78;;
25191;SDS011;13143;50.924;5.320;2022-08-19T11:12:33;13.52;;;6.15;;
25191;SDS011;13143;50.924;5.320;2022-08-19T11:14:59;7.15;;;5.93;;
25191;SDS011;13143;50.924;5.320;2022-08-19T11:17:25;12.25;;;5.55;;
25191;SDS011;13143;50.924;5.320;2022-08-19T11:19:50;13.15;;;5.75;;
25191;SDS011;13143;50.924;5.320;2022-08-19T11:22:16;10.10;;;6.35;;
25191;SDS011;13143;50.924;5.320;2022-08-19T11:24:42;14.50;;;6.32;;
25191;SDS011;13143;50.924;5.320;2022-08-19T11:27:08;9.43;;;5.95;;
25191;SDS011;13143;50.924;5.320;2022-08-19T11:29:37;7.97;;;6.05;;
25191;SDS011;13143;50.924;5.320;2022-08-19T11:32:07;8.55;;;5.95;;
25191;SDS011;13143;50.924;5.320;2022-08-19T11:34:34;10.85;;;5.68;;
25191;SDS011;13143;50.924;5.320;2022-08-19T11:37:02;9.02;;;6.38;;
25191;SDS011;13143;50.924;5.320;2022-08-19T11:39:29;11.65;;;6.55;;
25191;SDS011;13143;50.924;5.320;2022-08-19T11:41:57;10.50;;;5.95;;
25191;SDS011;13143;50.924;5.320;2022-08-19T11:44:23;8.10;;;5.53;;
25191;SDS011;13143;50.924;5.320;2022-08-19T11:46:50;9.55;;;6.10;;
25191;SDS011;13143;50.924;5.320;2022-08-19T11:49:18;9.38;;;5.95;;
25191;SDS011;13143;50.924;5.320;2022-08-19T11:51:44;9.95;;;5.85;;
25191;SDS011;13143;50.924;5.320;2022-08-19T11:54:11;7.85;;;5.40;;
25191;SDS011;13143;50.924;5.320;2022-08-19T11:56:38;7.07;;;5.20;;
25191;SDS011;13143;50.924;5.320;2022-08-19T11:59:05;9.45;;;5.28;;
25191;SDS011;13143;50.924;5.320;2022-08-19T12:01:31;7.00;;;5.13;;
25191;SDS011;13143;50.924;5.320;2022-08-19T12:03:56;7.63;;;4.93;;
25191;SDS011;13143;50.924;5.320;2022-08-19T12:06:23;11.10;;;5.47;;
25191;SDS011;13143;50.924;5.320;2022-08-19T12:08:53;9.02;;;5.45;;
25191;SDS011;13143;50.924;5.320;2022-08-19T12:11:20;9.65;;;5.30;;
25191;SDS011;13143;50.924;5.320;2022-08-19T12:13:46;7.72;;;4.75;;
25191;SDS011;13143;50.924;5.320;2022-08-19T12:16:16;9.00;;;5.22;;
25191;SDS011;13143;50.924;5.320;2022-08-19T12:18:47;9.27;;;6.00;;
25191;SDS011;13143;50.924;5.320;2022-08-19T12:21:14;9.52;;;5.65;;
25191;SDS011;13143;50.924;5.320;2022-08-19T12:23:41;10.15;;;6.13;;
25191;SDS011;13143;50.924;5.320;2022-08-19T12:26:08;9.05;;;6.68;;
25191;SDS011;13143;50.924;5.320;2022-08-19T12:28:35;10.68;;;6.38;;
25191;SDS011;13143;50.924;5.320;2022-08-19T12:31:00;10.23;;;5.82;;
25191;SDS011;13143;50.924;5.320;2022-08-19T12:33:26;11.55;;;5.82;;
25191;SDS011;13143;50.924;5.320;2022-08-19T12:35:53;10.48;;;5.43;;
25191;SDS011;13143;50.924;5.320;2022-08-19T12:38:20;10.07;;;5.90;;
25191;SDS011;13143;50.924;5.320;2022-08-19T12:40:49;9.15;;;5.40;;
25191;SDS011;13143;50.924;5.320;2022-08-19T12:43:16;7.72;;;4.97;;
25191;SDS011;13143;50.924;5.320;2022-08-19T12:45:43;7.50;;;4.75;;
25191;SDS011;13143;50.924;5.320;2022-08-19T12:48:10;14.23;;;4.60;;
25191;SDS011;13143;50.924;5.320;2022-08-19T12:50:38;7.60;;;4.43;;
25191;SDS011;13143;50.924;5.320;2022-08-19T12:53:05;8.38;;;4.05;;
25191;SDS011;13143;50.924;5.320;2022-08-19T12:55:30;8.32;;;4.10;;
25191;SDS011;13143;50.924;5.320;2022-08-19T12:57:56;9.23;;;4.70;;
25191;SDS011;13143;50.924;5.320;2022-08-19T13:00:22;8.48;;;5.20;;
25191;SDS011;13143;50.924;5.320;2022-08-19T13:02:50;9.07;;;5.97;;
25191;SDS011;13143;50.924;5.320;2022-08-19T13:05:17;8.68;;;5.28;;
25191;SDS011;13143;50.924;5.320;2022-08-19T13:07:48;11.82;;;5.95;;
25191;SDS011;13143;50.924;5.320;2022-08-19T13:10:17;10.55;;;4.90;;
25191;SDS011;13143;50.924;5.320;2022-08-19T13:12:45;6.63;;;4.72;;
25191;SDS011;13143;50.924;5.320;2022-08-19T13:15:12;6.35;;;4.93;;
25191;SDS011;13143;50.924;5.320;2022-08-19T13:17:39;13.77;;;4.90;;
25191;SDS011;13143;50.924;5.320;2022-08-19T13:20:05;7.90;;;4.43;;
25191;SDS011;13143;50.924;5.320;2022-08-19T13:22:33;8.82;;;4.05;;
25191;SDS011;13143;50.924;5.320;2022-08-19T13:25:00;10.35;;;4.18;;
25191;SDS011;13143;50.924;5.320;2022-08-19T13:27:26;27.92;;;4.55;;
25191;SDS011;13143;50.924;5.320;2022-08-19T13:29:52;7.05;;;3.80;;
25191;SDS011;13143;50.924;5.320;2022-08-19T13:32:36;6.85;;;3.30;;
25191;SDS011;13143;50.924;5.320;2022-08-19T13:35:20;6.68;;;3.53;;
25191;SDS011;13143;50.924;5.320;2022-08-19T13:37:46;5.38;;;3.25;;
25191;SDS011;13143;50.924;5.320;2022-08-19T13:40:15;6.53;;;3.03;;
25191;SDS011;13143;50.924;5.320;2022-08-19T13:42:47;6.03;;;3.30;;
25191;SDS011;13143;50.924;5.320;2022-08-19T13:45:15;4.55;;;3.35;;
25191;SDS011;13143;50.924;5.320;2022-08-19T13:47:48;6.10;;;3.50;;
25191;SDS011;13143;50.924;5.320;2022-08-19T13:50:16;5.90;;;2.97;;
25191;SDS011;13143;50.924;5.320;2022-08-19T13:52:44;2.90;;;2.58;;
25191;SDS011;13143;50.924;5.320;2022-08-19T13:55:11;6.70;;;2.97;;
25191;SDS011;13143;50.924;5.320;2022-08-19T13:57:37;5.78;;;3.60;;
25191;SDS011;13143;50.924;5.320;2022-08-19T14:00:16;7.47;;;3.60;;
25191;SDS011;13143;50.924;5.320;2022-08-19T14:02:43;7.40;;;3.70;;
25191;SDS011;13143;50.924;5.320;2022-08-19T14:05:10;6.55;;;4.13;;
25191;SDS011;13143;50.924;5.320;2022-08-19T14:07:39;4.70;;;3.70;;
25191;SDS011;13143;50.924;5.320;2022-08-19T14:10:06;4.93;;;3.83;;
25191;SDS011;13143;50.924;5.320;2022-08-19T14:12:33;6.32;;;3.60;;
25191;SDS011;13143;50.924;5.320;2022-08-19T14:14:59;4.72;;;3.70;;
25191;SDS011;13143;50.924;5.320;2022-08-19T14:17:25;7.63;;;3.80;;
25191;SDS011;13143;50.924;5.320;2022-08-19T14:19:58;6.97;;;4.10;;
25191;SDS011;13143;50.924;5.320;2022-08-19T14:22:32;8.45;;;4.38;;
25191;SDS011;13143;50.924;5.320;2022-08-19T14:24:58;10.23;;;4.65;;
25191;SDS011;13143;50.924;5.320;2022-08-19T14:27:24;6.18;;;4.03;;
25191;SDS011;13143;50.924;5.320;2022-08-19T14:29:50;5.13;;;3.85;;
25191;SDS011;13143;50.924;5.320;2022-08-19T14:32:16;7.80;;;4.18;;
25191;SDS011;13143;50.924;5.320;2022-08-19T14:34:42;6.25;;;4.40;;
25191;SDS011;13143;50.924;5.320;2022-08-19T14:37:10;4.65;;;3.53;;
25191;SDS011;13143;50.924;5.320;2022-08-19T14:39:40;8.27;;;4.00;;
25191;SDS011;13143;50.924;5.320;2022-08-19T14:42:07;4.53;;;3.72;;
25191;SDS011;13143;50.924;5.320;2022-08-19T14:44:35;7.00;;;3.47;;
25191;SDS011;13143;50.924;5.320;2022-08-19T14:47:01;6.15;;;3.88;;
25191;SDS011;13143;50.924;5.320;2022-08-19T14:49:27;9.38;;;3.92;;